sensor_id;sensor_type;location;lat;lon;timestamp;P1;durP1;ratioP1;P2;durP2;ratioP2
52272;SDS011;38227;50.942;4.016;2022-09-09T07:33:34;17.02;;;3.25;;
52272;SDS011;38227;50.942;4.016;2022-09-09T07:36:10;18.37;;;3.20;;
52272;SDS011;38227;50.942;4.016;2022-09-09T07:38:52;21.98;;;3.08;;
52272;SDS011;38227;50.942;4.016;2022-09-09T07:41:35;16.67;;;3.25;;
52272;SDS011;38227;50.942;4.016;2022-09-09T07:44:10;13.50;;;2.80;;
52272;SDS011;38227;50.942;4.016;2022-09-09T07:46:43;11.68;;;2.72;;
52272;SDS011;38227;50.942;4.016;2022-09-09T07:49:16;14.48;;;2.90;;
52272;SDS011;38227;50.942;4.016;2022-09-09T07:51:53;16.33;;;2.87;;
52272;SDS011;38227;50.942;4.016;2022-09-09T07:54:22;13.23;;;2.95;;
52272;SDS011;38227;50.942;4.016;2022-09-09T07:56:52;13.62;;;3.03;;
52272;SDS011;38227;50.942;4.016;2022-09-09T07:59:20;13.30;;;2.50;;
52272;SDS011;38227;50.942;4.016;2022-09-09T08:01:49;11.00;;;2.28;;
52272;SDS011;38227;50.942;4.016;2022-09-09T08:04:21;14.48;;;2.53;;
52272;SDS011;38227;50.942;4.016;2022-09-09T08:06:56;17.67;;;3.15;;
52272;SDS011;38227;50.942;4.016;2022-09-09T08:09:25;16.62;;;3.15;;
52272;SDS011;38227;50.942;4.016;2022-09-09T08:11:55;19.52;;;2.70;;
52272;SDS011;38227;50.942;4.016;2022-09-09T08:14:23;13.62;;;2.65;;
52272;SDS011;38227;50.942;4.016;2022-09-09T08:16:52;12.93;;;2.58;;
52272;SDS011;38227;50.942;4.016;2022-09-09T08:19:23;12.37;;;2.55;;
52272;SDS011;38227;50.942;4.016;2022-09-09T08:21:56;15.70;;;2.87;;
52272;SDS011;38227;50.942;4.016;2022-09-09T08:24:27;13.88;;;2.50;;
52272;SDS011;38227;50.942;4.016;2022-09-09T08:26:57;12.93;;;2.80;;
52272;SDS011;38227;50.942;4.016;2022-09-09T08:29:25;12.10;;;2.30;;
52272;SDS011;38227;50.942;4.016;2022-09-09T08:31:57;11.27;;;3.20;;
52272;SDS011;38227;50.942;4.016;2022-09-09T08:34:26;11.12;;;2.62;;
52272;SDS011;38227;50.942;4.016;2022-09-09T08:36:55;17.92;;;2.62;;
52272;SDS011;38227;50.942;4.016;2022-09-09T08:39:24;10.90;;;2.80;;
52272;SDS011;38227;50.942;4.016;2022-09-09T08:45:21;7.85;;;2.35;;
52272;SDS011;38227;50.942;4.016;2022-09-09T08:48:09;10.93;;;2.50;;
52272;SDS011;38227;50.942;4.016;2022-09-09T08:51:03;17.15;;;3.00;;
52272;SDS011;38227;50.942;4.016;2022-09-09T08:53:41;10.73;;;2.83;;
52272;SDS011;38227;50.942;4.016;2022-09-09T08:56:21;10.48;;;2.83;;
52272;SDS011;38227;50.942;4.016;2022-09-09T08:58:54;15.32;;;3.35;;
52272;SDS011;38227;50.942;4.016;2022-09-09T09:04:45;13.27;;;3.12;;
52272;SDS011;38227;50.942;4.016;2022-09-09T09:10:54;16.08;;;3.22;;
52272;SDS011;38227;50.942;4.016;2022-09-09T09:16:32;10.20;;;2.40;;
52272;SDS011;38227;50.942;4.016;2022-09-09T09:19:12;10.43;;;2.10;;
52272;SDS011;38227;50.942;4.016;2022-09-09T09:21:50;10.40;;;2.30;;
52272;SDS011;38227;50.942;4.016;2022-09-09T09:31:03;12.82;;;2.58;;
52272;SDS011;38227;50.942;4.016;2022-09-09T09:33:55;8.32;;;2.35;;
52272;SDS011;38227;50.942;4.016;2022-09-09T09:36:37;13.30;;;3.17;;
52272;SDS011;38227;50.942;4.016;2022-09-09T09:39:09;11.20;;;2.78;;
52272;SDS011;38227;50.942;4.016;2022-09-09T09:41:38;14.13;;;2.78;;
52272;SDS011;38227;50.942;4.016;2022-09-09T09:44:26;12.70;;;2.35;;
52272;SDS011;38227;50.942;4.016;2022-09-09T09:47:14;11.38;;;2.95;;
52272;SDS011;38227;50.942;4.016;2022-09-09T09:49:56;11.95;;;2.90;;
52272;SDS011;38227;50.942;4.016;2022-09-09T09:52:26;14.23;;;3.33;;
52272;SDS011;38227;50.942;4.016;2022-09-09T09:54:57;10.82;;;2.75;;
52272;SDS011;38227;50.942;4.016;2022-09-09T09:57:28;12.27;;;2.92;;
52272;SDS011;38227;50.942;4.016;2022-09-09T10:00:02;12.48;;;2.47;;
52272;SDS011;38227;50.942;4.016;2022-09-09T10:02:41;13.27;;;2.62;;
52272;SDS011;38227;50.942;4.016;2022-09-09T10:05:21;12.68;;;2.30;;
52272;SDS011;38227;50.942;4.016;2022-09-09T10:08:03;9.38;;;2.55;;
52272;SDS011;38227;50.942;4.016;2022-09-09T10:11:05;7.72;;;2.10;;
52272;SDS011;38227;50.942;4.016;2022-09-09T10:13:55;10.90;;;2.55;;
52272;SDS011;38227;50.942;4.016;2022-09-09T10:23:38;7.95;;;2.58;;
52272;SDS011;38227;50.942;4.016;2022-09-09T10:33:16;15.13;;;2.58;;
52272;SDS011;38227;50.942;4.016;2022-09-09T10:39:22;10.23;;;2.30;;
52272;SDS011;38227;50.942;4.016;2022-09-09T10:42:32;8.43;;;1.77;;
52272;SDS011;38227;50.942;4.016;2022-09-09T10:55:18;8.70;;;2.37;;
52272;SDS011;38227;50.942;4.016;2022-09-09T10:57:56;6.37;;;2.10;;
52272;SDS011;38227;50.942;4.016;2022-09-09T11:03:24;8.90;;;2.03;;
52272;SDS011;38227;50.942;4.016;2022-09-09T11:06:05;7.97;;;1.70;;
52272;SDS011;38227;50.942;4.016;2022-09-09T11:08:39;7.60;;;1.85;;
52272;SDS011;38227;50.942;4.016;2022-09-09T11:14:10;7.50;;;1.67;;
52272;SDS011;38227;50.942;4.016;2022-09-09T11:17:00;7.20;;;1.90;;
52272;SDS011;38227;50.942;4.016;2022-09-09T11:19:53;4.75;;;1.52;;
52272;SDS011;38227;50.942;4.016;2022-09-09T11:22:39;6.90;;;1.80;;
52272;SDS011;38227;50.942;4.016;2022-09-09T11:25:23;8.30;;;1.85;;
52272;SDS011;38227;50.942;4.016;2022-09-09T11:28:02;8.43;;;1.95;;
52272;SDS011;38227;50.942;4.016;2022-09-09T11:37:50;9.30;;;1.70;;
52272;SDS011;38227;50.942;4.016;2022-09-09T11:40:40;6.00;;;1.73;;
52272;SDS011;38227;50.942;4.016;2022-09-09T11:43:09;8.05;;;1.73;;
52272;SDS011;38227;50.942;4.016;2022-09-09T11:45:53;6.47;;;1.62;;
52272;SDS011;38227;50.942;4.016;2022-09-09T11:48:28;7.57;;;1.52;;
52272;SDS011;38227;50.942;4.016;2022-09-09T11:51:29;6.18;;;2.05;;
52272;SDS011;38227;50.942;4.016;2022-09-09T11:54:25;9.95;;;1.95;;
52272;SDS011;38227;50.942;4.016;2022-09-09T11:56:58;6.22;;;1.60;;
52272;SDS011;38227;50.942;4.016;2022-09-09T11:59:30;6.68;;;1.65;;
52272;SDS011;38227;50.942;4.016;2022-09-09T12:02:00;5.75;;;1.67;;
52272;SDS011;38227;50.942;4.016;2022-09-09T12:07:51;5.18;;;1.85;;
52272;SDS011;38227;50.942;4.016;2022-09-09T12:13:26;11.95;;;2.10;;
52272;SDS011;38227;50.942;4.016;2022-09-09T12:15:58;7.45;;;1.80;;
52272;SDS011;38227;50.942;4.016;2022-09-09T12:21:46;10.63;;;1.65;;
52272;SDS011;38227;50.942;4.016;2022-09-09T12:40:28;8.07;;;1.60;;
52272;SDS011;38227;50.942;4.016;2022-09-09T12:43:02;5.18;;;1.42;;
52272;SDS011;38227;50.942;4.016;2022-09-09T12:45:43;5.97;;;1.67;;
52272;SDS011;38227;50.942;4.016;2022-09-09T12:48:14;5.87;;;1.50;;
52272;SDS011;38227;50.942;4.016;2022-09-09T12:50:52;8.68;;;2.03;;
52272;SDS011;38227;50.942;4.016;2022-09-09T12:53:25;6.32;;;1.50;;
52272;SDS011;38227;50.942;4.016;2022-09-09T12:55:59;6.40;;;1.83;;
52272;SDS011;38227;50.942;4.016;2022-09-09T12:58:37;3.28;;;1.12;;
52272;SDS011;38227;50.942;4.016;2022-09-09T13:01:33;3.67;;;1.30;;
52272;SDS011;38227;50.942;4.016;2022-09-09T13:04:01;6.28;;;1.70;;
52272;SDS011;38227;50.942;4.016;2022-09-09T13:06:31;8.43;;;1.87;;
52272;SDS011;38227;50.942;4.016;2022-09-09T13:09:01;3.60;;;1.35;;
52272;SDS011;38227;50.942;4.016;2022-09-09T13:11:33;4.68;;;1.65;;
52272;SDS011;38227;50.942;4.016;2022-09-09T13:14:03;6.85;;;1.70;;
52272;SDS011;38227;50.942;4.016;2022-09-09T13:16:34;4.25;;;1.40;;
52272;SDS011;38227;50.942;4.016;2022-09-09T13:19:21;5.80;;;1.45;;
52272;SDS011;38227;50.942;4.016;2022-09-09T13:21:58;7.65;;;1.42;;
52272;SDS011;38227;50.942;4.016;2022-09-09T13:27:35;4.78;;;1.65;;
52272;SDS011;38227;50.942;4.016;2022-09-09T13:36:06;3.90;;;1.25;;
52272;SDS011;38227;50.942;4.016;2022-09-09T13:38:40;5.47;;;1.50;;
52272;SDS011;38227;50.942;4.016;2022-09-09T13:41:22;6.10;;;1.48;;
52272;SDS011;38227;50.942;4.016;2022-09-09T13:43:51;4.82;;;1.42;;
52272;SDS011;38227;50.942;4.016;2022-09-09T13:52:09;6.43;;;1.85;;
52272;SDS011;38227;50.942;4.016;2022-09-09T13:54:38;5.60;;;1.70;;
52272;SDS011;38227;50.942;4.016;2022-09-09T13:57:14;4.62;;;1.42;;
52272;SDS011;38227;50.942;4.016;2022-09-09T13:59:47;6.57;;;1.52;;
52272;SDS011;38227;50.942;4.016;2022-09-09T14:02:16;3.90;;;1.50;;
52272;SDS011;38227;50.942;4.016;2022-09-09T14:04:44;6.05;;;1.50;;
52272;SDS011;38227;50.942;4.016;2022-09-09T14:07:16;5.45;;;1.50;;
52272;SDS011;38227;50.942;4.016;2022-09-09T14:09:48;4.65;;;1.37;;
52272;SDS011;38227;50.942;4.016;2022-09-09T14:12:18;5.78;;;1.30;;
52272;SDS011;38227;50.942;4.016;2022-09-09T14:14:49;4.68;;;1.55;;
52272;SDS011;38227;50.942;4.016;2022-09-09T14:17:17;5.28;;;1.58;;
52272;SDS011;38227;50.942;4.016;2022-09-09T14:19:47;7.05;;;1.50;;
52272;SDS011;38227;50.942;4.016;2022-09-09T14:22:15;4.50;;;1.27;;
52272;SDS011;38227;50.942;4.016;2022-09-09T14:24:43;4.45;;;1.30;;
52272;SDS011;38227;50.942;4.016;2022-09-09T14:27:12;4.90;;;1.48;;
52272;SDS011;38227;50.942;4.016;2022-09-09T14:29:40;4.60;;;1.45;;
52272;SDS011;38227;50.942;4.016;2022-09-09T14:32:10;5.30;;;1.30;;
52272;SDS011;38227;50.942;4.016;2022-09-09T14:34:38;7.95;;;1.45;;
52272;SDS011;38227;50.942;4.016;2022-09-09T14:37:06;2.75;;;1.35;;
52272;SDS011;38227;50.942;4.016;2022-09-09T14:39:34;4.10;;;1.27;;
52272;SDS011;38227;50.942;4.016;2022-09-09T14:42:02;7.40;;;1.40;;
52272;SDS011;38227;50.942;4.016;2022-09-09T14:44:31;4.12;;;1.35;;
52272;SDS011;38227;50.942;4.016;2022-09-09T14:46:59;5.55;;;1.50;;
52272;SDS011;38227;50.942;4.016;2022-09-09T14:49:27;5.62;;;1.37;;
52272;SDS011;38227;50.942;4.016;2022-09-09T14:51:57;6.22;;;1.50;;
52272;SDS011;38227;50.942;4.016;2022-09-09T14:54:24;5.22;;;1.50;;
52272;SDS011;38227;50.942;4.016;2022-09-09T14:56:54;5.07;;;1.40;;
52272;SDS011;38227;50.942;4.016;2022-09-09T14:59:23;7.62;;;1.62;;
52272;SDS011;38227;50.942;4.016;2022-09-09T15:02:00;4.32;;;1.50;;
52272;SDS011;38227;50.942;4.016;2022-09-09T15:04:31;6.78;;;1.62;;
52272;SDS011;38227;50.942;4.016;2022-09-09T15:07:03;6.03;;;1.90;;
52272;SDS011;38227;50.942;4.016;2022-09-09T15:09:35;7.60;;;1.67;;
52272;SDS011;38227;50.942;4.016;2022-09-09T15:12:04;9.57;;;1.80;;
52272;SDS011;38227;50.942;4.016;2022-09-09T15:14:34;6.30;;;1.40;;
52272;SDS011;38227;50.942;4.016;2022-09-09T15:17:03;7.93;;;1.95;;
52272;SDS011;38227;50.942;4.016;2022-09-09T15:19:32;6.80;;;2.00;;
52272;SDS011;38227;50.942;4.016;2022-09-09T15:22:06;6.28;;;2.10;;
52272;SDS011;38227;50.942;4.016;2022-09-09T15:24:52;5.78;;;1.70;;
52272;SDS011;38227;50.942;4.016;2022-09-09T15:27:23;6.97;;;1.90;;
52272;SDS011;38227;50.942;4.016;2022-09-09T15:29:51;15.73;;;3.95;;
52272;SDS011;38227;50.942;4.016;2022-09-09T15:32:24;14.23;;;3.10;;
52272;SDS011;38227;50.942;4.016;2022-09-09T15:34:55;8.32;;;2.47;;
52272;SDS011;38227;50.942;4.016;2022-09-09T15:37:24;11.52;;;2.90;;
52272;SDS011;38227;50.942;4.016;2022-09-09T15:39:55;9.20;;;2.50;;
52272;SDS011;38227;50.942;4.016;2022-09-09T15:42:27;9.60;;;2.90;;
52272;SDS011;38227;50.942;4.016;2022-09-09T15:45:03;7.78;;;2.45;;
52272;SDS011;38227;50.942;4.016;2022-09-09T15:47:37;12.55;;;2.50;;
52272;SDS011;38227;50.942;4.016;2022-09-09T15:50:05;7.72;;;2.35;;
52272;SDS011;38227;50.942;4.016;2022-09-09T15:52:35;6.30;;;2.20;;
52272;SDS011;38227;50.942;4.016;2022-09-09T15:55:04;7.78;;;2.40;;
52272;SDS011;38227;50.942;4.016;2022-09-09T15:57:35;9.05;;;2.50;;
52272;SDS011;38227;50.942;4.016;2022-09-09T16:00:03;10.30;;;2.40;;
52272;SDS011;38227;50.942;4.016;2022-09-09T16:02:33;8.00;;;2.58;;
52272;SDS011;38227;50.942;4.016;2022-09-09T16:05:02;8.93;;;2.92;;
52272;SDS011;38227;50.942;4.016;2022-09-09T16:07:43;9.25;;;2.45;;
52272;SDS011;38227;50.942;4.016;2022-09-09T16:10:14;10.95;;;2.72;;
52272;SDS011;38227;50.942;4.016;2022-09-09T16:12:46;4.95;;;1.73;;
52272;SDS011;38227;50.942;4.016;2022-09-09T16:15:15;4.20;;;1.23;;
52272;SDS011;38227;50.942;4.016;2022-09-09T16:17:48;3.35;;;1.10;;
52272;SDS011;38227;50.942;4.016;2022-09-09T16:20:15;4.40;;;1.25;;
52272;SDS011;38227;50.942;4.016;2022-09-09T16:22:45;3.80;;;1.12;;
52272;SDS011;38227;50.942;4.016;2022-09-09T16:25:22;2.60;;;1.20;;
52272;SDS011;38227;50.942;4.016;2022-09-09T16:27:50;4.25;;;1.50;;
52272;SDS011;38227;50.942;4.016;2022-09-09T16:30:18;3.25;;;1.40;;
52272;SDS011;38227;50.942;4.016;2022-09-09T16:32:47;4.82;;;1.73;;
52272;SDS011;38227;50.942;4.016;2022-09-09T16:35:24;4.10;;;2.22;;
52272;SDS011;38227;50.942;4.016;2022-09-09T16:37:55;5.43;;;1.80;;
52272;SDS011;38227;50.942;4.016;2022-09-09T16:40:27;4.55;;;1.52;;
52272;SDS011;38227;50.942;4.016;2022-09-09T16:42:56;3.58;;;1.80;;
52272;SDS011;38227;50.942;4.016;2022-09-09T16:45:41;4.43;;;1.80;;
52272;SDS011;38227;50.942;4.016;2022-09-09T16:48:11;3.85;;;1.83;;
52272;SDS011;38227;50.942;4.016;2022-09-09T16:50:42;5.78;;;1.85;;
52272;SDS011;38227;50.942;4.016;2022-09-09T16:53:11;6.07;;;1.98;;
52272;SDS011;38227;50.942;4.016;2022-09-09T16:55:40;3.37;;;1.60;;
52272;SDS011;38227;50.942;4.016;2022-09-09T16:58:12;3.50;;;1.50;;
52272;SDS011;38227;50.942;4.016;2022-09-09T17:00:41;6.32;;;1.70;;
52272;SDS011;38227;50.942;4.016;2022-09-09T17:03:13;3.28;;;1.50;;
52272;SDS011;38227;50.942;4.016;2022-09-09T17:05:43;4.70;;;1.65;;
52272;SDS011;38227;50.942;4.016;2022-09-09T17:08:11;5.18;;;1.30;;
52272;SDS011;38227;50.942;4.016;2022-09-09T17:10:42;4.37;;;1.75;;
52272;SDS011;38227;50.942;4.016;2022-09-09T17:13:10;5.72;;;1.52;;
52272;SDS011;38227;50.942;4.016;2022-09-09T17:15:39;3.62;;;1.52;;
52272;SDS011;38227;50.942;4.016;2022-09-09T17:18:10;2.53;;;1.10;;
52272;SDS011;38227;50.942;4.016;2022-09-09T17:20:38;4.65;;;1.60;;
52272;SDS011;38227;50.942;4.016;2022-09-09T17:23:09;5.22;;;1.48;;
52272;SDS011;38227;50.942;4.016;2022-09-09T17:25:41;4.05;;;1.70;;
52272;SDS011;38227;50.942;4.016;2022-09-09T17:28:13;4.60;;;1.50;;
52272;SDS011;38227;50.942;4.016;2022-09-09T17:30:41;6.85;;;1.70;;
52272;SDS011;38227;50.942;4.016;2022-09-09T17:33:12;8.45;;;3.28;;
52272;SDS011;38227;50.942;4.016;2022-09-09T17:35:43;4.85;;;1.70;;
52272;SDS011;38227;50.942;4.016;2022-09-09T17:38:22;7.40;;;1.83;;
52272;SDS011;38227;50.942;4.016;2022-09-09T17:41:06;5.47;;;1.80;;
52272;SDS011;38227;50.942;4.016;2022-09-09T17:43:36;8.88;;;2.15;;
52272;SDS011;38227;50.942;4.016;2022-09-09T17:49:11;10.55;;;1.85;;
52272;SDS011;38227;50.942;4.016;2022-09-09T17:51:46;9.07;;;1.80;;
52272;SDS011;38227;50.942;4.016;2022-09-09T17:54:15;7.45;;;1.50;;
52272;SDS011;38227;50.942;4.016;2022-09-09T17:56:45;7.40;;;1.90;;
52272;SDS011;38227;50.942;4.016;2022-09-09T17:59:14;7.70;;;1.65;;
52272;SDS011;38227;50.942;4.016;2022-09-09T18:01:45;9.43;;;1.90;;
52272;SDS011;38227;50.942;4.016;2022-09-09T18:04:15;10.23;;;2.35;;
52272;SDS011;38227;50.942;4.016;2022-09-09T18:06:45;8.20;;;1.90;;
52272;SDS011;38227;50.942;4.016;2022-09-09T18:09:19;8.38;;;2.10;;
52272;SDS011;38227;50.942;4.016;2022-09-09T18:11:50;13.02;;;2.47;;
52272;SDS011;38227;50.942;4.016;2022-09-09T18:14:23;10.88;;;2.00;;
52272;SDS011;38227;50.942;4.016;2022-09-09T18:16:55;6.65;;;1.67;;
52272;SDS011;38227;50.942;4.016;2022-09-09T18:19:25;9.57;;;2.30;;
52272;SDS011;38227;50.942;4.016;2022-09-09T18:21:55;11.15;;;2.10;;
52272;SDS011;38227;50.942;4.016;2022-09-09T18:24:25;15.52;;;2.97;;
52272;SDS011;38227;50.942;4.016;2022-09-09T18:26:56;9.35;;;2.70;;
52272;SDS011;38227;50.942;4.016;2022-09-09T18:29:26;15.63;;;2.70;;
52272;SDS011;38227;50.942;4.016;2022-09-09T18:31:57;11.60;;;2.40;;
52272;SDS011;38227;50.942;4.016;2022-09-09T18:34:26;9.90;;;2.42;;
52272;SDS011;38227;50.942;4.016;2022-09-09T18:37:03;12.35;;;1.90;;
52272;SDS011;38227;50.942;4.016;2022-09-09T18:39:32;10.38;;;2.03;;
52272;SDS011;38227;50.942;4.016;2022-09-09T18:42:02;10.43;;;2.15;;
52272;SDS011;38227;50.942;4.016;2022-09-09T18:44:33;12.88;;;2.53;;
52272;SDS011;38227;50.942;4.016;2022-09-09T18:47:03;11.23;;;2.45;;
52272;SDS011;38227;50.942;4.016;2022-09-09T18:49:33;12.82;;;2.50;;
52272;SDS011;38227;50.942;4.016;2022-09-09T18:52:04;12.05;;;2.25;;
52272;SDS011;38227;50.942;4.016;2022-09-09T18:54:32;12.40;;;3.12;;
52272;SDS011;38227;50.942;4.016;2022-09-09T18:57:02;16.15;;;3.70;;
52272;SDS011;38227;50.942;4.016;2022-09-09T18:59:33;11.70;;;2.37;;
52272;SDS011;38227;50.942;4.016;2022-09-09T19:02:01;12.77;;;2.40;;
52272;SDS011;38227;50.942;4.016;2022-09-09T19:04:30;10.60;;;2.05;;
52272;SDS011;38227;50.942;4.016;2022-09-09T19:07:01;11.10;;;2.40;;
52272;SDS011;38227;50.942;4.016;2022-09-09T19:09:31;9.70;;;2.47;;
52272;SDS011;38227;50.942;4.016;2022-09-09T19:12:00;11.00;;;2.20;;
52272;SDS011;38227;50.942;4.016;2022-09-09T19:14:31;11.85;;;2.37;;
52272;SDS011;38227;50.942;4.016;2022-09-09T19:17:02;13.45;;;2.70;;
52272;SDS011;38227;50.942;4.016;2022-09-09T19:19:32;12.35;;;2.30;;
52272;SDS011;38227;50.942;4.016;2022-09-09T19:22:00;11.40;;;2.70;;
52272;SDS011;38227;50.942;4.016;2022-09-09T19:24:32;10.45;;;2.33;;
52272;SDS011;38227;50.942;4.016;2022-09-09T19:27:02;15.10;;;2.75;;
52272;SDS011;38227;50.942;4.016;2022-09-09T19:29:32;13.35;;;2.83;;
52272;SDS011;38227;50.942;4.016;2022-09-09T19:32:07;13.23;;;2.37;;
52272;SDS011;38227;50.942;4.016;2022-09-09T19:34:36;12.18;;;2.75;;
52272;SDS011;38227;50.942;4.016;2022-09-09T19:37:05;13.15;;;2.25;;
52272;SDS011;38227;50.942;4.016;2022-09-09T19:39:36;12.73;;;2.47;;
52272;SDS011;38227;50.942;4.016;2022-09-09T19:42:06;11.57;;;2.20;;
52272;SDS011;38227;50.942;4.016;2022-09-09T19:44:38;10.85;;;2.37;;
52272;SDS011;38227;50.942;4.016;2022-09-09T19:47:07;11.07;;;2.33;;
52272;SDS011;38227;50.942;4.016;2022-09-09T19:49:38;11.60;;;2.37;;
52272;SDS011;38227;50.942;4.016;2022-09-09T19:52:08;11.45;;;2.17;;
52272;SDS011;38227;50.942;4.016;2022-09-09T19:54:39;15.13;;;2.28;;
52272;SDS011;38227;50.942;4.016;2022-09-09T19:57:08;12.60;;;2.30;;
52272;SDS011;38227;50.942;4.016;2022-09-09T19:59:37;9.50;;;2.00;;
52272;SDS011;38227;50.942;4.016;2022-09-09T20:02:14;12.50;;;2.50;;
52272;SDS011;38227;50.942;4.016;2022-09-09T20:04:43;9.95;;;2.40;;
52272;SDS011;38227;50.942;4.016;2022-09-09T20:07:14;9.27;;;2.33;;
52272;SDS011;38227;50.942;4.016;2022-09-09T20:09:45;12.07;;;2.50;;
52272;SDS011;38227;50.942;4.016;2022-09-09T20:12:16;14.00;;;2.70;;
52272;SDS011;38227;50.942;4.016;2022-09-09T20:14:45;11.30;;;2.37;;
52272;SDS011;38227;50.942;4.016;2022-09-09T20:17:22;11.65;;;2.50;;
52272;SDS011;38227;50.942;4.016;2022-09-09T20:19:51;9.30;;;2.37;;
52272;SDS011;38227;50.942;4.016;2022-09-09T20:22:23;13.30;;;2.75;;
52272;SDS011;38227;50.942;4.016;2022-09-09T20:24:52;16.30;;;3.15;;
52272;SDS011;38227;50.942;4.016;2022-09-09T20:27:29;11.38;;;2.65;;
52272;SDS011;38227;50.942;4.016;2022-09-09T20:29:58;10.95;;;2.83;;
52272;SDS011;38227;50.942;4.016;2022-09-09T20:32:30;8.05;;;2.40;;
52272;SDS011;38227;50.942;4.016;2022-09-09T20:34:59;13.15;;;2.28;;
52272;SDS011;38227;50.942;4.016;2022-09-09T20:37:31;13.52;;;2.75;;
52272;SDS011;38227;50.942;4.016;2022-09-09T20:40:00;11.27;;;2.28;;
52272;SDS011;38227;50.942;4.016;2022-09-09T20:42:36;9.90;;;2.30;;
52272;SDS011;38227;50.942;4.016;2022-09-09T20:45:08;8.73;;;2.20;;
52272;SDS011;38227;50.942;4.016;2022-09-09T20:47:40;12.85;;;2.60;;
52272;SDS011;38227;50.942;4.016;2022-09-09T20:50:09;11.45;;;2.60;;
52272;SDS011;38227;50.942;4.016;2022-09-09T20:52:41;13.65;;;2.87;;
52272;SDS011;38227;50.942;4.016;2022-09-09T20:55:10;16.45;;;3.00;;
52272;SDS011;38227;50.942;4.016;2022-09-09T20:57:42;14.13;;;2.90;;
52272;SDS011;38227;50.942;4.016;2022-09-09T21:00:14;12.82;;;3.20;;
52272;SDS011;38227;50.942;4.016;2022-09-09T21:02:46;12.13;;;3.72;;
52272;SDS011;38227;50.942;4.016;2022-09-09T21:05:15;12.57;;;3.37;;
52272;SDS011;38227;50.942;4.016;2022-09-09T21:07:47;12.57;;;3.70;;
52272;SDS011;38227;50.942;4.016;2022-09-09T21:10:16;11.43;;;3.30;;
52272;SDS011;38227;50.942;4.016;2022-09-09T21:12:53;9.40;;;3.30;;
52272;SDS011;38227;50.942;4.016;2022-09-09T21:15:22;14.00;;;3.53;;
52272;SDS011;38227;50.942;4.016;2022-09-09T21:17:54;12.73;;;3.58;;
52272;SDS011;38227;50.942;4.016;2022-09-09T21:20:23;11.55;;;3.90;;
52272;SDS011;38227;50.942;4.016;2022-09-09T21:23:00;15.68;;;4.00;;
52272;SDS011;38227;50.942;4.016;2022-09-09T21:25:29;14.15;;;3.87;;
52272;SDS011;38227;50.942;4.016;2022-09-09T21:28:00;12.15;;;3.95;;
52272;SDS011;38227;50.942;4.016;2022-09-09T21:30:30;10.50;;;3.92;;
52272;SDS011;38227;50.942;4.016;2022-09-09T21:33:00;11.05;;;4.07;;
52272;SDS011;38227;50.942;4.016;2022-09-09T21:35:33;25.92;;;5.22;;
52272;SDS011;38227;50.942;4.016;2022-09-09T21:38:01;19.12;;;5.03;;
52272;SDS011;38227;50.942;4.016;2022-09-09T21:40:30;17.92;;;4.82;;
52272;SDS011;38227;50.942;4.016;2022-09-09T21:43:00;13.82;;;4.72;;
52272;SDS011;38227;50.942;4.016;2022-09-09T21:45:35;13.48;;;4.55;;
52272;SDS011;38227;50.942;4.016;2022-09-09T21:48:09;19.15;;;4.82;;
52272;SDS011;38227;50.942;4.016;2022-09-09T21:50:42;14.00;;;4.20;;
52272;SDS011;38227;50.942;4.016;2022-09-09T21:53:14;18.05;;;4.72;;
52272;SDS011;38227;50.942;4.016;2022-09-09T21:55:43;15.98;;;4.80;;
52272;SDS011;38227;50.942;4.016;2022-09-09T21:58:15;13.80;;;4.55;;
52272;SDS011;38227;50.942;4.016;2022-09-09T22:00:45;14.55;;;4.80;;
52272;SDS011;38227;50.942;4.016;2022-09-09T22:03:15;16.45;;;4.93;;
52272;SDS011;38227;50.942;4.016;2022-09-09T22:05:53;17.30;;;4.68;;
52272;SDS011;38227;50.942;4.016;2022-09-09T22:08:22;17.83;;;4.43;;
52272;SDS011;38227;50.942;4.016;2022-09-09T22:10:52;17.70;;;4.35;;
52272;SDS011;38227;50.942;4.016;2022-09-09T22:13:21;21.75;;;5.07;;
52272;SDS011;38227;50.942;4.016;2022-09-09T22:15:53;19.23;;;4.07;;
52272;SDS011;38227;50.942;4.016;2022-09-09T22:18:23;17.85;;;4.45;;
52272;SDS011;38227;50.942;4.016;2022-09-09T22:20:57;15.35;;;4.75;;
52272;SDS011;38227;50.942;4.016;2022-09-09T22:23:28;16.75;;;4.55;;
52272;SDS011;38227;50.942;4.016;2022-09-09T22:25:59;16.55;;;4.28;;
52272;SDS011;38227;50.942;4.016;2022-09-09T22:28:28;20.20;;;5.07;;
52272;SDS011;38227;50.942;4.016;2022-09-09T22:31:00;19.62;;;4.68;;
52272;SDS011;38227;50.942;4.016;2022-09-09T22:33:27;11.25;;;4.18;;
52272;SDS011;38227;50.942;4.016;2022-09-09T22:35:57;16.55;;;4.28;;
52272;SDS011;38227;50.942;4.016;2022-09-09T22:38:28;18.17;;;4.28;;
52272;SDS011;38227;50.942;4.016;2022-09-09T22:41:00;15.75;;;4.43;;
52272;SDS011;38227;50.942;4.016;2022-09-09T22:43:29;19.40;;;4.45;;
52272;SDS011;38227;50.942;4.016;2022-09-09T22:46:00;13.00;;;4.07;;
52272;SDS011;38227;50.942;4.016;2022-09-09T22:48:34;18.05;;;4.45;;
52272;SDS011;38227;50.942;4.016;2022-09-09T22:51:05;15.70;;;4.37;;
52272;SDS011;38227;50.942;4.016;2022-09-09T22:53:35;19.75;;;4.55;;
52272;SDS011;38227;50.942;4.016;2022-09-09T22:56:05;16.55;;;4.82;;
52272;SDS011;38227;50.942;4.016;2022-09-09T22:58:37;17.75;;;4.53;;
52272;SDS011;38227;50.942;4.016;2022-09-09T23:01:09;16.83;;;4.30;;
52272;SDS011;38227;50.942;4.016;2022-09-09T23:03:44;17.30;;;4.65;;
52272;SDS011;38227;50.942;4.016;2022-09-09T23:06:18;15.90;;;4.18;;
52272;SDS011;38227;50.942;4.016;2022-09-09T23:08:50;17.40;;;4.30;;
52272;SDS011;38227;50.942;4.016;2022-09-09T23:11:27;16.67;;;4.37;;
52272;SDS011;38227;50.942;4.016;2022-09-09T23:14:00;22.85;;;4.82;;
52272;SDS011;38227;50.942;4.016;2022-09-09T23:16:35;14.70;;;4.50;;
52272;SDS011;38227;50.942;4.016;2022-09-09T23:19:05;16.45;;;4.62;;
52272;SDS011;38227;50.942;4.016;2022-09-09T23:21:36;20.50;;;4.50;;
52272;SDS011;38227;50.942;4.016;2022-09-09T23:24:06;18.90;;;5.25;;
52272;SDS011;38227;50.942;4.016;2022-09-09T23:26:38;21.50;;;5.40;;
52272;SDS011;38227;50.942;4.016;2022-09-09T23:29:08;22.48;;;5.35;;
52272;SDS011;38227;50.942;4.016;2022-09-09T23:31:41;23.58;;;5.70;;
52272;SDS011;38227;50.942;4.016;2022-09-09T23:34:10;22.15;;;5.47;;
52272;SDS011;38227;50.942;4.016;2022-09-09T23:36:40;16.48;;;4.85;;
52272;SDS011;38227;50.942;4.016;2022-09-09T23:39:11;16.08;;;4.82;;
52272;SDS011;38227;50.942;4.016;2022-09-09T23:41:40;14.87;;;4.80;;
52272;SDS011;38227;50.942;4.016;2022-09-09T23:44:09;15.70;;;4.75;;
52272;SDS011;38227;50.942;4.016;2022-09-09T23:46:44;26.87;;;5.68;;
52272;SDS011;38227;50.942;4.016;2022-09-09T23:49:16;17.48;;;5.03;;
52272;SDS011;38227;50.942;4.016;2022-09-09T23:51:49;18.55;;;4.95;;
52272;SDS011;38227;50.942;4.016;2022-09-09T23:54:21;20.80;;;5.43;;
52272;SDS011;38227;50.942;4.016;2022-09-09T23:56:51;23.27;;;5.37;;
52272;SDS011;38227;50.942;4.016;2022-09-09T23:59:20;21.75;;;5.68;;
